Time,TemperatureF,DewpointF,PressureIn,WindDirection,WindDirectionDegrees,WindSpeedMPH,WindSpeedGustMPH,Humidity,HourlyPrecipIn,Conditions,Clouds,dailyrainin,SoftwareType,DateUTC
2013-01-24 00:00:00,15.5,12.8,30.23,NNW,338,1.0,5.0,89,0.00,,,0.00,VWS V14.00,2013-01-24 05:00:00,
2013-01-24 00:30:00,14.9,12.2,30.25,NNW,338,1.0,7.0,89,0.00,,,0.00,VWS V14.00,2013-01-24 05:30:00,
2013-01-24 01:00:00,13.7,10.8,30.28,NNW,338,1.0,5.0,88,0.00,,,0.00,VWS V14.00,2013-01-24 06:00:00,
2013-01-24 01:30:00,12.9,10.3,30.30,NNW,338,0.0,2.0,89,0.00,,,0.00,VWS V14.00,2013-01-24 06:30:00,
2013-01-24 02:00:00,11.2,8.4,30.33,NW,315,0.0,2.0,88,0.00,,,0.00,VWS V14.00,2013-01-24 07:00:00,
2013-01-24 02:30:00,9.1,6.3,30.34,NW,315,0.0,2.0,88,0.00,,,0.00,VWS V14.00,2013-01-24 07:30:00,
2013-01-24 03:00:00,6.2,3.4,30.38,West,270,0.0,1.0,88,0.00,,,0.00,VWS V14.00,2013-01-24 08:00:00,
2013-01-24 03:30:00,4.3,1.5,30.39,West,270,0.0,0.0,88,0.00,,,0.00,VWS V14.00,2013-01-24 08:30:00,
2013-01-24 04:00:00,2.8,0.3,30.40,West,270,0.0,0.0,89,0.00,,,0.00,VWS V14.00,2013-01-24 09:00:00,
2013-01-24 04:30:00,2.8,0.5,30.41,West,270,0.0,0.0,90,0.00,,,0.00,VWS V14.00,2013-01-24 09:30:00,
2013-01-24 05:00:00,3.0,0.5,30.43,West,270,0.0,0.0,89,0.00,,,0.00,VWS V14.00,2013-01-24 10:00:00,
2013-01-24 05:30:00,1.6,-0.9,30.45,West,270,0.0,0.0,89,0.00,,,0.00,VWS V14.00,2013-01-24 10:30:00,
2013-01-24 06:00:00,1.7,-0.6,30.48,West,270,0.0,0.0,90,0.00,,,0.00,VWS V14.00,2013-01-24 11:00:00,
2013-01-24 06:30:00,1.0,-1.7,30.50,West,270,0.0,0.0,88,0.00,,,0.00,VWS V14.00,2013-01-24 11:30:00,
2013-01-24 07:00:00,2.8,0.5,30.53,West,270,0.0,0.0,90,0.00,,,0.00,VWS V14.00,2013-01-24 12:00:00,
2013-01-24 07:30:00,3.7,1.2,30.56,NW,315,0.0,2.0,89,0.00,,,0.00,VWS V14.00,2013-01-24 12:30:00,
2013-01-24 08:00:00,4.1,1.8,30.57,NNW,338,0.0,1.0,90,0.00,,,0.00,VWS V14.00,2013-01-24 13:00:00,
2013-01-24 08:30:00,5.0,2.5,30.58,NNW,338,0.0,1.0,89,0.00,,,0.00,VWS V14.00,2013-01-24 13:30:00,
2013-01-24 09:00:00,6.7,4.4,30.60,East,90,0.0,1.0,90,0.00,,,0.00,VWS V14.00,2013-01-24 14:00:00,
2013-01-24 09:30:00,8.7,6.1,30.62,East,90,0.0,1.0,89,0.00,,,0.00,VWS V14.00,2013-01-24 14:30:00,
2013-01-24 10:00:00,10.5,6.6,30.65,East,90,0.0,1.0,84,0.00,,,0.00,VWS V14.00,2013-01-24 15:00:00,
2013-01-24 10:30:00,12.4,6.6,30.67,East,90,0.0,3.0,77,0.00,,,0.00,VWS V14.00,2013-01-24 15:30:00,
2013-01-24 11:00:00,13.6,5.3,30.67,East,90,1.0,3.0,69,0.00,,,0.00,VWS V14.00,2013-01-24 16:00:00,
2013-01-24 11:30:00,15.1,5.8,30.67,East,90,1.0,3.0,66,0.00,,,0.00,VWS V14.00,2013-01-24 16:30:00,
2013-01-24 12:00:00,16.1,5.0,30.67,ESE,112,1.0,4.0,61,0.00,,,0.00,VWS V14.00,2013-01-24 17:00:00,
2013-01-24 12:30:00,16.2,4.0,30.66,East,90,2.0,4.0,58,0.00,,,0.00,VWS V14.00,2013-01-24 17:30:00,
2013-01-24 13:00:00,17.5,3.7,30.65,ESE,112,2.0,4.0,54,0.00,,,0.00,VWS V14.00,2013-01-24 18:00:00,
2013-01-24 13:55:00,17.5,3.7,30.65,ESE,112,2.0,4.0,54,0.00,,,0.00,VWS V14.00,2013-01-24 18:55:00,
2013-01-24 14:00:00,17.7,3.5,30.64,ESE,109,2.0,3.0,53,0.00,,,0.00,VWS V14.00,2013-01-24 19:00:00,
2013-01-24 14:05:00,17.8,3.2,30.63,ENE,77,2.0,3.0,52,0.00,,,0.00,VWS V14.00,2013-01-24 19:05:00,
2013-01-24 14:10:00,18.1,3.5,30.63,SE,124,1.0,3.0,52,0.00,,,0.00,VWS V14.00,2013-01-24 19:10:00,
2013-01-24 14:15:00,18.3,3.2,30.63,ESE,105,3.0,3.0,51,0.00,,,0.00,VWS V14.00,2013-01-24 19:15:00,
2013-01-24 14:20:00,18.5,3.4,30.63,ESE,118,0.0,3.0,51,0.00,,,0.00,VWS V14.00,2013-01-24 19:20:00,
2013-01-24 14:25:00,19.0,3.9,30.63,SE,141,2.0,3.0,51,0.00,,,0.00,VWS V14.00,2013-01-24 19:25:00,
2013-01-24 14:30:00,19.3,4.6,30.63,ESE,110,3.0,3.0,52,0.00,,,0.00,VWS V14.00,2013-01-24 19:30:00,
2013-01-24 14:35:00,18.9,3.3,30.63,East,94,3.0,3.0,50,0.00,,,0.00,VWS V14.00,2013-01-24 19:35:00,
2013-01-24 14:40:00,18.6,3.5,30.62,ENE,75,1.0,3.0,51,0.00,,,0.00,VWS V14.00,2013-01-24 19:40:00,
2013-01-24 14:45:00,18.5,3.0,30.62,ESE,113,3.0,3.0,50,0.00,,,0.00,VWS V14.00,2013-01-24 19:45:00,
2013-01-24 14:50:00,18.2,2.3,30.62,SE,129,2.0,4.0,49,0.00,,,0.00,VWS V14.00,2013-01-24 19:50:00,
2013-01-24 14:55:00,18.2,2.7,30.62,East,82,1.0,5.0,50,0.00,,,0.00,VWS V14.00,2013-01-24 19:55:00,
2013-01-24 15:00:00,18.1,2.6,30.62,East,91,2.0,5.0,50,0.00,,,0.00,VWS V14.00,2013-01-24 20:00:00,
2013-01-24 15:05:00,18.0,2.5,30.62,ESE,110,1.0,4.0,50,0.00,,,0.00,VWS V14.00,2013-01-24 20:05:00,
2013-01-24 15:10:00,17.8,1.9,30.62,SE,124,1.0,4.0,49,0.00,,,0.00,VWS V14.00,2013-01-24 20:10:00,
2013-01-24 15:15:00,17.8,1.9,30.62,ESE,121,1.0,4.0,49,0.00,,,0.00,VWS V14.00,2013-01-24 20:15:00,
2013-01-24 15:20:00,17.9,2.0,30.62,ENE,76,2.0,4.0,49,0.00,,,0.00,VWS V14.00,2013-01-24 20:20:00,
2013-01-24 15:25:00,18.1,3.0,30.62,East,85,3.0,4.0,51,0.00,,,0.00,VWS V14.00,2013-01-24 20:25:00,
2013-01-24 15:30:00,18.2,2.3,30.61,ENE,75,2.0,4.0,49,0.00,,,0.00,VWS V14.00,2013-01-24 20:30:00,
2013-01-24 15:35:00,18.0,2.1,30.61,ESE,111,3.0,3.0,49,0.00,,,0.00,VWS V14.00,2013-01-24 20:35:00,
2013-01-24 15:40:00,17.8,1.9,30.61,ESE,105,4.0,4.0,49,0.00,,,0.00,VWS V14.00,2013-01-24 20:40:00,
2013-01-24 15:45:00,17.6,1.7,30.61,ESE,120,3.0,4.0,49,0.00,,,0.00,VWS V14.00,2013-01-24 20:45:00,
2013-01-24 15:50:00,17.6,2.1,30.62,ENE,71,2.0,4.0,50,0.00,,,0.00,VWS V14.00,2013-01-24 20:50:00,
2013-01-24 15:55:00,17.5,2.0,30.62,East,91,2.0,4.0,50,0.00,,,0.00,VWS V14.00,2013-01-24 20:55:00,
2013-01-24 16:00:00,17.6,2.1,30.62,ESE,109,3.0,4.0,50,0.00,,,0.00,VWS V14.00,2013-01-24 21:00:00,
2013-01-24 16:05:00,17.6,1.7,30.62,SE,130,2.0,3.0,49,0.00,,,0.00,VWS V14.00,2013-01-24 21:05:00,
2013-01-24 16:10:00,17.6,1.7,30.62,East,79,2.0,3.0,49,0.00,,,0.00,VWS V14.00,2013-01-24 21:10:00,
2013-01-24 16:15:00,17.5,1.6,30.62,East,89,2.0,4.0,49,0.00,,,0.00,VWS V14.00,2013-01-24 21:15:00,
2013-01-24 16:20:00,17.4,2.0,30.62,ENE,72,1.0,4.0,50,0.00,,,0.00,VWS V14.00,2013-01-24 21:20:00,
2013-01-24 16:25:00,17.4,1.5,30.61,SE,141,2.0,4.0,49,0.00,,,0.00,VWS V14.00,2013-01-24 21:25:00,
2013-01-24 16:30:00,17.4,1.5,30.62,East,92,2.0,4.0,49,0.00,,,0.00,VWS V14.00,2013-01-24 21:30:00,
2013-01-24 16:35:00,17.3,1.4,30.62,ESE,118,1.0,3.0,49,0.00,,,0.00,VWS V14.00,2013-01-24 21:35:00,
2013-01-24 16:40:00,17.2,1.3,30.61,East,93,1.0,3.0,49,0.00,,,0.00,VWS V14.00,2013-01-24 21:40:00,
2013-01-24 16:45:00,17.0,1.6,30.61,ESE,104,1.0,3.0,50,0.00,,,0.00,VWS V14.00,2013-01-24 21:45:00,
2013-01-24 16:50:00,16.9,1.5,30.62,East,86,0.0,3.0,50,0.00,,,0.00,VWS V14.00,2013-01-24 21:50:00,
2013-01-24 16:55:00,16.8,1.4,30.62,East,97,1.0,3.0,50,0.00,,,0.00,VWS V14.00,2013-01-24 21:55:00,
2013-01-24 17:00:00,16.7,1.3,30.62,East,79,1.0,3.0,50,0.00,,,0.00,VWS V14.00,2013-01-24 22:00:00,
2013-01-24 17:05:00,16.6,1.6,30.62,East,84,0.0,0.0,51,0.00,,,0.00,VWS V14.00,2013-01-24 22:05:00,
2013-01-24 17:10:00,16.5,1.5,30.62,ESE,107,0.0,0.0,51,0.00,,,0.00,VWS V14.00,2013-01-24 22:10:00,
2013-01-24 17:15:00,16.3,1.4,30.62,ESE,118,0.0,0.0,51,0.00,,,0.00,VWS V14.00,2013-01-24 22:15:00,
2013-01-24 17:20:00,16.1,1.6,30.62,East,97,1.0,1.0,52,0.00,,,0.00,VWS V14.00,2013-01-24 22:20:00,
2013-01-24 17:25:00,15.8,1.3,30.62,ESE,114,0.0,1.0,52,0.00,,,0.00,VWS V14.00,2013-01-24 22:25:00,
2013-01-24 17:30:00,15.5,1.8,30.62,ESE,110,1.0,1.0,54,0.00,,,0.00,VWS V14.00,2013-01-24 22:30:00,
2013-01-24 17:35:00,15.3,2.0,30.62,SE,125,0.0,0.0,55,0.00,,,0.00,VWS V14.00,2013-01-24 22:35:00,
2013-01-24 17:40:00,14.8,2.0,30.62,SSE,152,0.0,1.0,56,0.00,,,0.00,VWS V14.00,2013-01-24 22:40:00,
2013-01-24 17:45:00,14.3,1.9,30.61,SSE,152,0.0,1.0,57,0.00,,,0.00,VWS V14.00,2013-01-24 22:45:00,
2013-01-24 17:50:00,13.8,1.8,30.62,SSE,152,0.0,1.0,58,0.00,,,0.00,VWS V14.00,2013-01-24 22:50:00,
2013-01-24 17:55:00,13.3,1.7,30.61,SSE,150,0.0,1.0,59,0.00,,,0.00,VWS V14.00,2013-01-24 22:55:00,
2013-01-24 18:00:00,13.2,2.3,30.61,SSE,152,0.0,1.0,61,0.00,,,0.00,VWS V14.00,2013-01-24 23:00:00,
2013-01-24 18:05:00,12.9,2.0,30.61,SSE,150,0.0,0.0,61,0.00,,,0.00,VWS V14.00,2013-01-24 23:05:00,
2013-01-24 18:10:00,12.5,1.6,30.61,SSE,151,0.0,0.0,61,0.00,,,0.00,VWS V14.00,2013-01-24 23:10:00,
2013-01-24 18:15:00,12.3,2.1,30.61,SSE,152,0.0,0.0,63,0.00,,,0.00,VWS V14.00,2013-01-24 23:15:00,
2013-01-24 18:20:00,12.5,3.0,30.60,SSE,152,0.0,0.0,65,0.00,,,0.00,VWS V14.00,2013-01-24 23:20:00,
2013-01-24 18:25:00,12.4,3.2,30.60,SSE,150,0.0,0.0,66,0.00,,,0.00,VWS V14.00,2013-01-24 23:25:00,
2013-01-24 18:30:00,12.4,3.5,30.60,SSE,153,0.0,0.0,67,0.00,,,0.00,VWS V14.00,2013-01-24 23:30:00,
2013-01-24 18:35:00,12.4,3.9,30.60,SSE,150,0.0,0.0,68,0.00,,,0.00,VWS V14.00,2013-01-24 23:35:00,
2013-01-24 18:40:00,12.6,4.1,30.60,SSE,152,0.0,0.0,68,0.00,,,0.00,VWS V14.00,2013-01-24 23:40:00,
2013-01-24 18:45:00,12.8,3.9,30.59,East,81,1.0,2.0,67,0.00,,,0.00,VWS V14.00,2013-01-24 23:45:00,
2013-01-24 18:50:00,13.0,3.8,30.59,East,81,0.0,2.0,66,0.00,,,0.00,VWS V14.00,2013-01-24 23:50:00,
2013-01-24 18:55:00,13.2,4.0,30.59,East,81,0.0,2.0,66,0.00,,,0.00,VWS V14.00,2013-01-24 23:55:00,
2013-01-24 19:00:00,13.5,3.9,30.59,East,96,0.0,2.0,65,0.00,,,0.00,VWS V14.00,2013-01-25 00:00:00,
2013-01-24 19:05:00,13.6,4.0,30.59,East,93,0.0,0.0,65,0.00,,,0.00,VWS V14.00,2013-01-25 00:05:00,
2013-01-24 19:10:00,13.8,4.2,30.59,ESE,110,0.0,0.0,65,0.00,,,0.00,VWS V14.00,2013-01-25 00:10:00,
2013-01-24 19:15:00,13.8,4.6,30.60,ESE,112,0.0,0.0,66,0.00,,,0.00,VWS V14.00,2013-01-25 00:15:00,
2013-01-24 19:20:00,13.7,4.5,30.60,ESE,110,0.0,0.0,66,0.00,,,0.00,VWS V14.00,2013-01-25 00:20:00,
2013-01-24 19:25:00,13.7,4.5,30.59,ESE,110,0.0,0.0,66,0.00,,,0.00,VWS V14.00,2013-01-25 00:25:00,
2013-01-24 19:30:00,13.7,4.5,30.59,ESE,113,0.0,0.0,66,0.00,,,0.00,VWS V14.00,2013-01-25 00:30:00,
2013-01-24 19:35:00,13.6,4.4,30.58,ESE,105,0.0,0.0,66,0.00,,,0.00,VWS V14.00,2013-01-25 00:35:00,
2013-01-24 19:40:00,13.6,4.4,30.59,ESE,121,0.0,0.0,66,0.00,,,0.00,VWS V14.00,2013-01-25 00:40:00,
2013-01-24 19:45:00,13.6,4.4,30.59,ESE,115,0.0,0.0,66,0.00,,,0.00,VWS V14.00,2013-01-25 00:45:00,
2013-01-24 19:50:00,13.7,4.5,30.59,ESE,105,0.0,1.0,66,0.00,,,0.00,VWS V14.00,2013-01-25 00:50:00,
2013-01-24 19:55:00,13.7,4.5,30.58,East,93,0.0,2.0,66,0.00,,,0.00,VWS V14.00,2013-01-25 00:55:00,
2013-01-24 20:00:00,13.7,4.5,30.58,ESE,112,1.0,3.0,66,0.00,,,0.00,VWS V14.00,2013-01-25 01:00:00,
2013-01-24 20:06:00,13.8,4.6,30.58,ESE,106,0.0,0.0,66,0.00,,,0.00,VWS V14.00,2013-01-25 01:06:00,
2013-01-24 20:10:00,13.8,4.2,30.58,East,87,1.0,2.0,65,0.00,,,0.00,VWS V14.00,2013-01-25 01:10:00,
2013-01-24 20:15:00,13.8,4.6,30.57,ESE,109,2.0,3.0,66,0.00,,,0.00,VWS V14.00,2013-01-25 01:15:00,
2013-01-24 20:20:00,13.9,4.3,30.57,East,79,1.0,3.0,65,0.00,,,0.00,VWS V14.00,2013-01-25 01:20:00,
2013-01-24 20:25:00,13.9,4.3,30.56,East,79,2.0,3.0,65,0.00,,,0.00,VWS V14.00,2013-01-25 01:25:00,
2013-01-24 20:30:00,14.0,4.1,30.56,East,94,2.0,3.0,64,0.00,,,0.00,VWS V14.00,2013-01-25 01:30:00,
2013-01-24 20:35:00,14.0,4.1,30.56,East,86,0.0,2.0,64,0.00,,,0.00,VWS V14.00,2013-01-25 01:35:00,
2013-01-24 20:40:00,14.0,4.1,30.56,East,89,1.0,3.0,64,0.00,,,0.00,VWS V14.00,2013-01-25 01:40:00,
2013-01-24 20:45:00,14.0,4.1,30.56,ESE,110,3.0,3.0,64,0.00,,,0.00,VWS V14.00,2013-01-25 01:45:00,
2013-01-24 20:50:00,14.0,4.1,30.56,ESE,103,3.0,3.0,64,0.00,,,0.00,VWS V14.00,2013-01-25 01:50:00,
2013-01-24 20:55:00,14.0,4.4,30.55,ESE,107,1.0,3.0,65,0.00,,,0.00,VWS V14.00,2013-01-25 01:55:00,
2013-01-24 21:00:00,14.0,4.4,30.55,ESE,118,1.0,3.0,65,0.00,,,0.00,VWS V14.00,2013-01-25 02:00:00,
2013-01-24 21:05:00,13.9,4.7,30.55,ESE,108,0.0,2.0,66,0.00,,,0.00,VWS V14.00,2013-01-25 02:05:00,
2013-01-24 21:10:00,14.0,4.8,30.55,East,101,1.0,2.0,66,0.00,,,0.00,VWS V14.00,2013-01-25 02:10:00,
2013-01-24 21:15:00,13.9,4.7,30.56,ESE,113,1.0,3.0,66,0.00,,,0.00,VWS V14.00,2013-01-25 02:15:00,
2013-01-24 21:20:00,14.0,5.1,30.56,ESE,112,0.0,3.0,67,0.00,,,0.00,VWS V14.00,2013-01-25 02:20:00,
2013-01-24 21:25:00,14.0,5.1,30.56,ESE,111,1.0,3.0,67,0.00,,,0.00,VWS V14.00,2013-01-25 02:25:00,
2013-01-24 21:30:00,14.0,5.1,30.56,ESE,108,0.0,3.0,67,0.00,,,0.00,VWS V14.00,2013-01-25 02:30:00,
2013-01-24 21:35:00,14.0,5.1,30.55,East,97,2.0,2.0,67,0.00,,,0.00,VWS V14.00,2013-01-25 02:35:00,
2013-01-24 21:40:00,14.1,5.5,30.55,ESE,111,1.0,2.0,68,0.00,,,0.00,VWS V14.00,2013-01-25 02:40:00,
2013-01-24 21:45:00,14.1,5.5,30.54,ESE,114,2.0,2.0,68,0.00,,,0.00,VWS V14.00,2013-01-25 02:45:00,
2013-01-24 21:50:00,14.2,5.6,30.54,ESE,108,2.0,4.0,68,0.00,,,0.00,VWS V14.00,2013-01-25 02:50:00,
2013-01-24 21:55:00,14.3,5.7,30.55,ENE,77,2.0,4.0,68,0.00,,,0.00,VWS V14.00,2013-01-25 02:55:00,
2013-01-24 22:00:00,14.4,5.8,30.54,ESE,115,1.0,4.0,68,0.00,,,0.00,VWS V14.00,2013-01-25 03:00:00,
2013-01-24 22:05:00,14.4,5.8,30.54,East,97,2.0,2.0,68,0.00,,,0.00,VWS V14.00,2013-01-25 03:05:00,
2013-01-24 22:10:00,14.4,5.8,30.54,ENE,77,2.0,3.0,68,0.00,,,0.00,VWS V14.00,2013-01-25 03:10:00,
2013-01-24 22:15:00,14.5,5.9,30.53,ESE,112,3.0,4.0,68,0.00,,,0.00,VWS V14.00,2013-01-25 03:15:00,
2013-01-24 22:20:00,14.5,5.6,30.52,East,84,1.0,6.0,67,0.00,,,0.00,VWS V14.00,2013-01-25 03:20:00,
2013-01-24 22:25:00,14.6,5.7,30.52,East,97,3.0,6.0,67,0.00,,,0.00,VWS V14.00,2013-01-25 03:25:00,
2013-01-24 22:30:00,14.6,6.0,30.51,East,91,3.0,6.0,68,0.00,,,0.00,VWS V14.00,2013-01-25 03:30:00,
2013-01-24 22:35:00,14.7,6.1,30.52,ESE,110,3.0,5.0,68,0.00,,,0.00,VWS V14.00,2013-01-25 03:35:00,
2013-01-24 22:40:00,14.7,5.8,30.51,East,96,4.0,6.0,67,0.00,,,0.00,VWS V14.00,2013-01-25 03:40:00,
2013-01-24 22:45:00,14.8,5.5,30.52,SE,125,2.0,8.0,66,0.00,,,0.00,VWS V14.00,2013-01-25 03:45:00,
2013-01-24 22:50:00,14.9,5.6,30.52,East,94,3.0,8.0,66,0.00,,,0.00,VWS V14.00,2013-01-25 03:50:00,
2013-01-24 22:55:00,15.0,5.7,30.52,East,101,3.0,8.0,66,0.00,,,0.00,VWS V14.00,2013-01-25 03:55:00,
2013-01-24 23:00:00,15.1,5.5,30.52,SSE,153,1.0,8.0,65,0.00,,,0.00,VWS V14.00,2013-01-25 04:00:00,
2013-01-24 23:06:00,15.2,5.2,30.52,ESE,112,2.0,4.0,64,0.00,,,0.00,VWS V14.00,2013-01-25 04:06:00,
2013-01-24 23:11:00,15.2,5.2,30.52,East,99,3.0,4.0,64,0.00,,,0.00,VWS V14.00,2013-01-25 04:11:00,
2013-01-24 23:16:00,15.3,5.0,30.53,SSE,150,2.0,5.0,63,0.00,,,0.00,VWS V14.00,2013-01-25 04:16:00,
2013-01-24 23:21:00,15.4,5.1,30.53,SE,124,1.0,5.0,63,0.00,,,0.00,VWS V14.00,2013-01-25 04:21:00,
2013-01-24 23:26:00,15.4,5.1,30.52,ESE,110,3.0,5.0,63,0.00,,,0.00,VWS V14.00,2013-01-25 04:26:00,
2013-01-24 23:31:00,15.4,5.1,30.52,ESE,110,2.0,5.0,63,0.00,,,0.00,VWS V14.00,2013-01-25 04:31:00,
2013-01-24 23:36:00,15.4,5.1,30.52,SE,131,1.0,3.0,63,0.00,,,0.00,VWS V14.00,2013-01-25 04:36:00,
2013-01-24 23:41:00,15.4,5.1,30.52,SE,133,3.0,3.0,63,0.00,,,0.00,VWS V14.00,2013-01-25 04:41:00,
2013-01-24 23:46:00,15.4,5.1,30.51,East,97,3.0,3.0,63,0.00,,,0.00,VWS V14.00,2013-01-25 04:46:00,
2013-01-24 23:51:00,15.5,4.8,30.51,SE,127,2.0,6.0,62,0.00,,,0.00,VWS V14.00,2013-01-25 04:51:00,
2013-01-24 23:56:00,15.5,4.8,30.50,ESE,120,3.0,6.0,62,0.00,,,0.00,VWS V14.00,2013-01-25 04:56:00,